Monte Alto, Texas
Current Conditions -  °F | °C
As of 6:55 PM on Tuesday 21 Oct 2014 (Local Time) from KT65 Reporting Station
Overcast Overcast  
Wind Chill: 76°   Ceiling: 4100
Heat Index: 76°   Visibility: 7mi
Dew Point: 71°   Wind: 3mph
Humidity: 86%   Direction: 20°NNE
Pressure: 29.91"   Gusts: NA
Location:  26.3131°N, 97.9381°W
Report Text: KT65 212355Z AUTO 02003KT 7SM SCT024 BKN041 OVC065 24/22 A2991 RMK AO2 P0002 60025 T02420217 10294 20225
Loading
Personal Weather Stations






























Interactive Weather Map
Tropical Storm Tracking
New forecast layout! Learn more

10-Day Weather Forecast

Advertisements
Track Severe Weather on mobile